sensor_id;sensor_type;location;lat;lon;timestamp;temperature;humidity
39189;DHT22;24915;50.858;4.376;2022-08-18T00:02:13;21.20;99.90
39189;DHT22;24915;50.858;4.376;2022-08-18T00:04:39;21.10;99.90
39189;DHT22;24915;50.858;4.376;2022-08-18T00:07:10;21.20;99.90
39189;DHT22;24915;50.858;4.376;2022-08-18T00:09:38;21.20;99.90
39189;DHT22;24915;50.858;4.376;2022-08-18T00:12:08;21.20;99.90
39189;DHT22;24915;50.858;4.376;2022-08-18T00:14:34;21.20;99.90
39189;DHT22;24915;50.858;4.376;2022-08-18T00:17:00;21.20;99.90
39189;DHT22;24915;50.858;4.376;2022-08-18T00:19:25;21.20;99.90
39189;DHT22;24915;50.858;4.376;2022-08-18T00:21:51;21.20;99.90
39189;DHT22;24915;50.858;4.376;2022-08-18T00:24:17;21.20;99.90
39189;DHT22;24915;50.858;4.376;2022-08-18T00:26:43;21.20;99.90
39189;DHT22;24915;50.858;4.376;2022-08-18T00:29:08;21.20;99.90
39189;DHT22;24915;50.858;4.376;2022-08-18T00:31:34;21.20;99.90
39189;DHT22;24915;50.858;4.376;2022-08-18T00:34:00;21.10;99.90
39189;DHT22;24915;50.858;4.376;2022-08-18T00:36:26;21.10;99.90
39189;DHT22;24915;50.858;4.376;2022-08-18T00:38:52;21.10;99.90
39189;DHT22;24915;50.858;4.376;2022-08-18T00:41:19;21.10;99.90
39189;DHT22;24915;50.858;4.376;2022-08-18T00:43:49;21.10;99.90
39189;DHT22;24915;50.858;4.376;2022-08-18T00:46:30;21.00;99.90
39189;DHT22;24915;50.858;4.376;2022-08-18T00:48:57;21.00;99.90
39189;DHT22;24915;50.858;4.376;2022-08-18T00:51:38;21.00;99.90
39189;DHT22;24915;50.858;4.376;2022-08-18T00:54:09;21.00;99.90
39189;DHT22;24915;50.858;4.376;2022-08-18T00:56:44;21.00;99.90
39189;DHT22;24915;50.858;4.376;2022-08-18T00:59:11;21.00;99.90
39189;DHT22;24915;50.858;4.376;2022-08-18T01:01:39;21.00;99.90
39189;DHT22;24915;50.858;4.376;2022-08-18T01:04:23;21.00;99.90
39189;DHT22;24915;50.858;4.376;2022-08-18T01:06:54;20.90;99.90
39189;DHT22;24915;50.858;4.376;2022-08-18T01:09:21;20.90;99.90
39189;DHT22;24915;50.858;4.376;2022-08-18T01:11:46;20.90;99.90
39189;DHT22;24915;50.858;4.376;2022-08-18T01:14:13;20.90;99.90
39189;DHT22;24915;50.858;4.376;2022-08-18T01:16:46;20.90;99.90
39189;DHT22;24915;50.858;4.376;2022-08-18T01:19:31;20.90;99.90
39189;DHT22;24915;50.858;4.376;2022-08-18T01:22:36;20.90;99.90
39189;DHT22;24915;50.858;4.376;2022-08-18T01:25:05;20.90;99.90
39189;DHT22;24915;50.858;4.376;2022-08-18T01:27:50;20.90;99.90
39189;DHT22;24915;50.858;4.376;2022-08-18T01:30:17;20.90;99.90
39189;DHT22;24915;50.858;4.376;2022-08-18T01:32:44;20.90;99.90
39189;DHT22;24915;50.858;4.376;2022-08-18T01:35:13;20.90;99.90
39189;DHT22;24915;50.858;4.376;2022-08-18T01:37:40;21.00;99.90
39189;DHT22;24915;50.858;4.376;2022-08-18T01:40:08;21.00;99.90
39189;DHT22;24915;50.858;4.376;2022-08-18T01:42:35;21.00;99.90
39189;DHT22;24915;50.858;4.376;2022-08-18T01:45:02;21.00;99.90
39189;DHT22;24915;50.858;4.376;2022-08-18T01:47:29;21.00;99.90
39189;DHT22;24915;50.858;4.376;2022-08-18T01:49:56;21.00;99.90
39189;DHT22;24915;50.858;4.376;2022-08-18T01:52:23;21.00;99.90
39189;DHT22;24915;50.858;4.376;2022-08-18T01:54:49;21.00;99.90
39189;DHT22;24915;50.858;4.376;2022-08-18T01:57:17;21.00;99.90
39189;DHT22;24915;50.858;4.376;2022-08-18T01:59:43;21.00;99.90
39189;DHT22;24915;50.858;4.376;2022-08-18T02:02:13;21.00;99.90
39189;DHT22;24915;50.858;4.376;2022-08-18T02:04:40;21.00;99.90
39189;DHT22;24915;50.858;4.376;2022-08-18T02:07:09;21.00;99.90
39189;DHT22;24915;50.858;4.376;2022-08-18T02:09:37;21.00;99.90
39189;DHT22;24915;50.858;4.376;2022-08-18T02:12:05;21.10;99.90
39189;DHT22;24915;50.858;4.376;2022-08-18T02:14:32;21.10;99.90
39189;DHT22;24915;50.858;4.376;2022-08-18T02:17:00;21.10;99.90
39189;DHT22;24915;50.858;4.376;2022-08-18T02:19:26;21.10;99.90
39189;DHT22;24915;50.858;4.376;2022-08-18T02:21:52;21.10;99.90
39189;DHT22;24915;50.858;4.376;2022-08-18T02:24:18;21.20;99.90
39189;DHT22;24915;50.858;4.376;2022-08-18T02:26:44;21.20;99.90
39189;DHT22;24915;50.858;4.376;2022-08-18T02:29:10;21.20;99.90
39189;DHT22;24915;50.858;4.376;2022-08-18T02:31:36;21.20;99.90
39189;DHT22;24915;50.858;4.376;2022-08-18T02:34:02;21.30;99.90
39189;DHT22;24915;50.858;4.376;2022-08-18T02:36:28;21.30;99.90
39189;DHT22;24915;50.858;4.376;2022-08-18T02:38:53;21.30;99.90
39189;DHT22;24915;50.858;4.376;2022-08-18T02:41:19;21.20;99.90
39189;DHT22;24915;50.858;4.376;2022-08-18T02:43:46;21.20;99.90
39189;DHT22;24915;50.858;4.376;2022-08-18T02:46:13;21.10;99.90
39189;DHT22;24915;50.858;4.376;2022-08-18T02:48:39;21.10;99.90
39189;DHT22;24915;50.858;4.376;2022-08-18T02:51:10;21.00;99.90
39189;DHT22;24915;50.858;4.376;2022-08-18T02:53:38;20.90;99.90
39189;DHT22;24915;50.858;4.376;2022-08-18T02:56:18;20.90;99.90
39189;DHT22;24915;50.858;4.376;2022-08-18T02:59:03;20.90;99.90
39189;DHT22;24915;50.858;4.376;2022-08-18T03:01:32;20.90;99.90
39189;DHT22;24915;50.858;4.376;2022-08-18T03:03:59;20.90;99.90
39189;DHT22;24915;50.858;4.376;2022-08-18T03:06:26;20.80;99.90
39189;DHT22;24915;50.858;4.376;2022-08-18T03:08:53;20.80;99.90
39189;DHT22;24915;50.858;4.376;2022-08-18T03:11:23;20.80;99.90
39189;DHT22;24915;50.858;4.376;2022-08-18T03:13:49;20.80;99.90
39189;DHT22;24915;50.858;4.376;2022-08-18T03:16:16;20.80;99.90
39189;DHT22;24915;50.858;4.376;2022-08-18T03:18:42;20.80;99.90
39189;DHT22;24915;50.858;4.376;2022-08-18T03:21:12;20.80;99.90
39189;DHT22;24915;50.858;4.376;2022-08-18T03:23:39;20.90;99.90
39189;DHT22;24915;50.858;4.376;2022-08-18T03:26:07;20.90;99.90
39189;DHT22;24915;50.858;4.376;2022-08-18T03:28:36;20.90;99.90
39189;DHT22;24915;50.858;4.376;2022-08-18T03:31:03;20.90;99.90
39189;DHT22;24915;50.858;4.376;2022-08-18T03:33:29;20.90;99.90
39189;DHT22;24915;50.858;4.376;2022-08-18T03:35:55;20.90;99.90
39189;DHT22;24915;50.858;4.376;2022-08-18T03:38:21;20.90;99.90
39189;DHT22;24915;50.858;4.376;2022-08-18T03:40:53;20.90;99.90
39189;DHT22;24915;50.858;4.376;2022-08-18T03:43:19;20.90;99.90
39189;DHT22;24915;50.858;4.376;2022-08-18T03:45:44;20.90;99.90
39189;DHT22;24915;50.858;4.376;2022-08-18T03:48:10;20.90;99.90
39189;DHT22;24915;50.858;4.376;2022-08-18T03:50:36;20.90;99.90
39189;DHT22;24915;50.858;4.376;2022-08-18T03:53:02;20.90;99.90
39189;DHT22;24915;50.858;4.376;2022-08-18T03:55:29;20.90;99.90
39189;DHT22;24915;50.858;4.376;2022-08-18T03:57:59;20.90;99.90
39189;DHT22;24915;50.858;4.376;2022-08-18T04:00:29;20.90;99.90
39189;DHT22;24915;50.858;4.376;2022-08-18T04:02:56;20.90;99.90
39189;DHT22;24915;50.858;4.376;2022-08-18T04:05:22;20.90;99.90
39189;DHT22;24915;50.858;4.376;2022-08-18T04:07:47;20.90;99.90
39189;DHT22;24915;50.858;4.376;2022-08-18T04:10:13;20.90;99.90
39189;DHT22;24915;50.858;4.376;2022-08-18T04:12:40;20.90;99.90
39189;DHT22;24915;50.858;4.376;2022-08-18T04:15:07;20.90;99.90
39189;DHT22;24915;50.858;4.376;2022-08-18T04:17:33;20.90;99.90
39189;DHT22;24915;50.858;4.376;2022-08-18T04:19:59;20.90;99.90
39189;DHT22;24915;50.858;4.376;2022-08-18T04:22:25;21.00;99.90
39189;DHT22;24915;50.858;4.376;2022-08-18T04:24:51;21.00;99.90
39189;DHT22;24915;50.858;4.376;2022-08-18T04:27:19;21.00;99.90
39189;DHT22;24915;50.858;4.376;2022-08-18T04:29:46;21.00;99.90
39189;DHT22;24915;50.858;4.376;2022-08-18T04:32:12;21.00;99.90
39189;DHT22;24915;50.858;4.376;2022-08-18T04:34:37;21.00;99.90
39189;DHT22;24915;50.858;4.376;2022-08-18T04:37:03;20.90;99.90
39189;DHT22;24915;50.858;4.376;2022-08-18T04:39:29;20.90;99.90
39189;DHT22;24915;50.858;4.376;2022-08-18T04:41:55;20.90;99.90
39189;DHT22;24915;50.858;4.376;2022-08-18T04:44:21;20.90;99.90
39189;DHT22;24915;50.858;4.376;2022-08-18T04:46:49;20.90;99.90
39189;DHT22;24915;50.858;4.376;2022-08-18T04:49:21;20.90;99.90
39189;DHT22;24915;50.858;4.376;2022-08-18T04:51:49;20.90;99.90
39189;DHT22;24915;50.858;4.376;2022-08-18T04:54:39;20.90;99.90
39189;DHT22;24915;50.858;4.376;2022-08-18T04:59:38;20.90;99.90
39189;DHT22;24915;50.858;4.376;2022-08-18T05:02:05;20.90;99.90
39189;DHT22;24915;50.858;4.376;2022-08-18T05:04:36;20.90;99.90
39189;DHT22;24915;50.858;4.376;2022-08-18T05:07:04;20.90;99.90
39189;DHT22;24915;50.858;4.376;2022-08-18T05:09:32;20.90;99.90
39189;DHT22;24915;50.858;4.376;2022-08-18T05:11:58;20.90;99.90
39189;DHT22;24915;50.858;4.376;2022-08-18T05:14:23;20.90;99.90
39189;DHT22;24915;50.858;4.376;2022-08-18T05:16:49;20.90;99.90
39189;DHT22;24915;50.858;4.376;2022-08-18T05:19:18;20.90;99.90
39189;DHT22;24915;50.858;4.376;2022-08-18T05:21:47;21.00;99.90
39189;DHT22;24915;50.858;4.376;2022-08-18T05:24:13;20.90;99.90
39189;DHT22;24915;50.858;4.376;2022-08-18T05:26:38;21.00;99.90
39189;DHT22;24915;50.858;4.376;2022-08-18T05:29:06;20.90;99.90
39189;DHT22;24915;50.858;4.376;2022-08-18T05:31:32;21.00;99.90
39189;DHT22;24915;50.858;4.376;2022-08-18T05:33:58;21.00;99.90
39189;DHT22;24915;50.858;4.376;2022-08-18T05:39:20;21.10;99.90
39189;DHT22;24915;50.858;4.376;2022-08-18T05:42:07;21.00;99.90
39189;DHT22;24915;50.858;4.376;2022-08-18T05:44:39;21.00;99.90
39189;DHT22;24915;50.858;4.376;2022-08-18T05:47:11;21.00;99.90
39189;DHT22;24915;50.858;4.376;2022-08-18T05:49:37;21.10;99.90
39189;DHT22;24915;50.858;4.376;2022-08-18T05:52:12;21.10;99.90
39189;DHT22;24915;50.858;4.376;2022-08-18T05:54:44;21.10;99.90
39189;DHT22;24915;50.858;4.376;2022-08-18T05:57:40;21.10;99.90
39189;DHT22;24915;50.858;4.376;2022-08-18T06:00:07;21.20;99.90
39189;DHT22;24915;50.858;4.376;2022-08-18T06:05:25;21.50;99.90
39189;DHT22;24915;50.858;4.376;2022-08-18T06:07:58;21.50;99.90
39189;DHT22;24915;50.858;4.376;2022-08-18T06:10:25;21.50;99.90
39189;DHT22;24915;50.858;4.376;2022-08-18T06:12:55;21.60;99.90
39189;DHT22;24915;50.858;4.376;2022-08-18T06:15:51;21.60;99.90
39189;DHT22;24915;50.858;4.376;2022-08-18T06:24:04;22.00;99.90
39189;DHT22;24915;50.858;4.376;2022-08-18T06:29:45;22.20;99.90
39189;DHT22;24915;50.858;4.376;2022-08-18T06:37:35;22.50;99.90
39189;DHT22;24915;50.858;4.376;2022-08-18T06:40:23;22.60;99.90
39189;DHT22;24915;50.858;4.376;2022-08-18T06:42:49;22.60;99.90
39189;DHT22;24915;50.858;4.376;2022-08-18T06:45:16;22.60;99.90
39189;DHT22;24915;50.858;4.376;2022-08-18T06:47:59;22.60;99.90
39189;DHT22;24915;50.858;4.376;2022-08-18T06:50:33;22.50;99.90
39189;DHT22;24915;50.858;4.376;2022-08-18T06:53:04;22.50;99.90
39189;DHT22;24915;50.858;4.376;2022-08-18T06:55:43;22.40;99.90
39189;DHT22;24915;50.858;4.376;2022-08-18T07:00:57;22.40;99.90
39189;DHT22;24915;50.858;4.376;2022-08-18T07:03:41;22.40;99.90
39189;DHT22;24915;50.858;4.376;2022-08-18T07:08:35;22.90;99.90
39189;DHT22;24915;50.858;4.376;2022-08-18T07:13:38;23.30;99.90
39189;DHT22;24915;50.858;4.376;2022-08-18T07:18:53;23.60;99.90
39189;DHT22;24915;50.858;4.376;2022-08-18T07:21:28;23.70;99.90
39189;DHT22;24915;50.858;4.376;2022-08-18T07:24:06;23.90;99.90
39189;DHT22;24915;50.858;4.376;2022-08-18T07:29:25;24.10;99.90
39189;DHT22;24915;50.858;4.376;2022-08-18T07:31:53;24.10;99.90
39189;DHT22;24915;50.858;4.376;2022-08-18T07:37:00;24.30;99.90
39189;DHT22;24915;50.858;4.376;2022-08-18T07:39:32;24.50;99.90
39189;DHT22;24915;50.858;4.376;2022-08-18T07:42:09;24.70;99.90
39189;DHT22;24915;50.858;4.376;2022-08-18T07:44:43;24.90;99.90
39189;DHT22;24915;50.858;4.376;2022-08-18T07:47:24;25.00;99.90
39189;DHT22;24915;50.858;4.376;2022-08-18T07:49:51;24.80;99.90
39189;DHT22;24915;50.858;4.376;2022-08-18T07:52:30;24.70;99.90
39189;DHT22;24915;50.858;4.376;2022-08-18T07:57:57;24.30;99.90
39189;DHT22;24915;50.858;4.376;2022-08-18T08:00:48;24.50;99.90
39189;DHT22;24915;50.858;4.376;2022-08-18T08:08:32;24.70;99.90
39189;DHT22;24915;50.858;4.376;2022-08-18T08:14:11;24.60;99.90
39189;DHT22;24915;50.858;4.376;2022-08-18T08:19:56;25.10;99.90
39189;DHT22;24915;50.858;4.376;2022-08-18T08:30:23;26.10;99.90
39189;DHT22;24915;50.858;4.376;2022-08-18T08:35:56;26.10;99.90
39189;DHT22;24915;50.858;4.376;2022-08-18T08:41:31;26.60;99.90
39189;DHT22;24915;50.858;4.376;2022-08-18T08:44:01;26.90;99.90
39189;DHT22;24915;50.858;4.376;2022-08-18T08:46:41;27.10;99.90
39189;DHT22;24915;50.858;4.376;2022-08-18T08:49:30;27.30;99.90
39189;DHT22;24915;50.858;4.376;2022-08-18T08:52:38;27.50;99.00
39189;DHT22;24915;50.858;4.376;2022-08-18T08:55:02;27.60;98.30
39189;DHT22;24915;50.858;4.376;2022-08-18T08:57:38;27.80;97.70
39189;DHT22;24915;50.858;4.376;2022-08-18T09:00:08;28.00;97.50
39189;DHT22;24915;50.858;4.376;2022-08-18T09:05:22;28.30;96.30
39189;DHT22;24915;50.858;4.376;2022-08-18T09:08:30;28.20;96.00
39189;DHT22;24915;50.858;4.376;2022-08-18T09:21:57;28.10;95.40
39189;DHT22;24915;50.858;4.376;2022-08-18T09:24:27;28.30;94.70
39189;DHT22;24915;50.858;4.376;2022-08-18T09:38:04;29.10;92.90
39189;DHT22;24915;50.858;4.376;2022-08-18T09:41:03;29.30;92.40
39189;DHT22;24915;50.858;4.376;2022-08-18T09:44:07;29.40;92.00
39189;DHT22;24915;50.858;4.376;2022-08-18T09:49:38;29.60;91.60
39189;DHT22;24915;50.858;4.376;2022-08-18T09:57:42;29.80;90.40
39189;DHT22;24915;50.858;4.376;2022-08-18T10:19:26;29.40;90.20
39189;DHT22;24915;50.858;4.376;2022-08-18T10:40:13;29.30;90.60
39189;DHT22;24915;50.858;4.376;2022-08-18T10:45:51;29.60;88.80
39189;DHT22;24915;50.858;4.376;2022-08-18T10:48:26;29.40;89.00
39189;DHT22;24915;50.858;4.376;2022-08-18T10:51:19;29.30;89.40
39189;DHT22;24915;50.858;4.376;2022-08-18T10:54:02;29.10;89.60
39189;DHT22;24915;50.858;4.376;2022-08-18T10:56:48;28.80;89.30
39189;DHT22;24915;50.858;4.376;2022-08-18T10:59:38;28.60;89.40
39189;DHT22;24915;50.858;4.376;2022-08-18T11:07:19;28.50;90.20
39189;DHT22;24915;50.858;4.376;2022-08-18T11:09:49;29.00;89.50
39189;DHT22;24915;50.858;4.376;2022-08-18T11:15:13;29.80;86.80
39189;DHT22;24915;50.858;4.376;2022-08-18T11:17:59;30.00;86.50
39189;DHT22;24915;50.858;4.376;2022-08-18T11:20:29;30.20;87.70
39189;DHT22;24915;50.858;4.376;2022-08-18T11:22:59;30.50;86.10
39189;DHT22;24915;50.858;4.376;2022-08-18T11:25:31;30.70;85.10
39189;DHT22;24915;50.858;4.376;2022-08-18T11:27:58;30.70;85.30
39189;DHT22;24915;50.858;4.376;2022-08-18T11:30:31;30.50;83.90
39189;DHT22;24915;50.858;4.376;2022-08-18T11:32:57;30.20;83.50
39189;DHT22;24915;50.858;4.376;2022-08-18T11:35:34;29.90;85.10
39189;DHT22;24915;50.858;4.376;2022-08-18T11:38:11;29.80;86.00
39189;DHT22;24915;50.858;4.376;2022-08-18T11:40:40;29.90;85.40
39189;DHT22;24915;50.858;4.376;2022-08-18T12:04:28;31.60;80.20
39189;DHT22;24915;50.858;4.376;2022-08-18T12:07:06;32.30;77.30
39189;DHT22;24915;50.858;4.376;2022-08-18T12:12:16;31.70;74.60
39189;DHT22;24915;50.858;4.376;2022-08-18T12:17:17;31.10;76.20
39189;DHT22;24915;50.858;4.376;2022-08-18T12:19:43;31.00;76.80
39189;DHT22;24915;50.858;4.376;2022-08-18T12:22:16;30.80;77.70
39189;DHT22;24915;50.858;4.376;2022-08-18T12:24:42;30.70;78.00
39189;DHT22;24915;50.858;4.376;2022-08-18T12:27:10;30.90;78.40
39189;DHT22;24915;50.858;4.376;2022-08-18T12:29:36;30.90;77.90
39189;DHT22;24915;50.858;4.376;2022-08-18T12:32:03;30.70;77.60
39189;DHT22;24915;50.858;4.376;2022-08-18T12:34:29;30.50;78.00
39189;DHT22;24915;50.858;4.376;2022-08-18T12:36:57;30.60;79.10
39189;DHT22;24915;50.858;4.376;2022-08-18T12:39:25;31.00;77.80
39189;DHT22;24915;50.858;4.376;2022-08-18T12:41:51;31.50;75.00
39189;DHT22;24915;50.858;4.376;2022-08-18T12:44:17;31.90;72.70
39189;DHT22;24915;50.858;4.376;2022-08-18T12:46:42;32.10;73.70
39189;DHT22;24915;50.858;4.376;2022-08-18T12:49:19;32.20;72.50
39189;DHT22;24915;50.858;4.376;2022-08-18T12:51:46;32.50;74.20
39189;DHT22;24915;50.858;4.376;2022-08-18T12:54:12;33.00;73.30
39189;DHT22;24915;50.858;4.376;2022-08-18T12:56:39;33.40;72.30
39189;DHT22;24915;50.858;4.376;2022-08-18T12:59:06;33.40;71.30
39189;DHT22;24915;50.858;4.376;2022-08-18T13:01:34;33.30;71.50
39189;DHT22;24915;50.858;4.376;2022-08-18T13:04:00;33.20;71.40
39189;DHT22;24915;50.858;4.376;2022-08-18T13:06:26;32.90;70.30
39189;DHT22;24915;50.858;4.376;2022-08-18T13:08:52;32.40;71.50
39189;DHT22;24915;50.858;4.376;2022-08-18T13:11:20;32.00;72.70
39189;DHT22;24915;50.858;4.376;2022-08-18T13:13:46;31.80;73.40
39189;DHT22;24915;50.858;4.376;2022-08-18T13:16:13;31.60;72.40
39189;DHT22;24915;50.858;4.376;2022-08-18T13:18:39;31.20;73.70
39189;DHT22;24915;50.858;4.376;2022-08-18T13:21:07;31.20;75.40
39189;DHT22;24915;50.858;4.376;2022-08-18T13:23:35;31.60;75.50
39189;DHT22;24915;50.858;4.376;2022-08-18T13:26:02;32.00;72.80
39189;DHT22;24915;50.858;4.376;2022-08-18T13:28:31;32.50;72.30
39189;DHT22;24915;50.858;4.376;2022-08-18T13:30:57;32.80;70.80
39189;DHT22;24915;50.858;4.376;2022-08-18T13:33:23;33.30;71.30
39189;DHT22;24915;50.858;4.376;2022-08-18T13:35:50;33.80;69.80
39189;DHT22;24915;50.858;4.376;2022-08-18T13:38:17;34.30;69.20
39189;DHT22;24915;50.858;4.376;2022-08-18T13:40:45;34.40;67.30
39189;DHT22;24915;50.858;4.376;2022-08-18T13:43:13;34.00;66.80
39189;DHT22;24915;50.858;4.376;2022-08-18T13:45:40;33.90;68.00
39189;DHT22;24915;50.858;4.376;2022-08-18T13:48:07;34.20;68.10
39189;DHT22;24915;50.858;4.376;2022-08-18T13:50:33;34.50;66.50
39189;DHT22;24915;50.858;4.376;2022-08-18T13:52:59;34.90;65.10
39189;DHT22;24915;50.858;4.376;2022-08-18T13:55:27;35.00;66.00
39189;DHT22;24915;50.858;4.376;2022-08-18T13:57:54;35.20;64.00
39189;DHT22;24915;50.858;4.376;2022-08-18T14:00:21;34.90;63.70
39189;DHT22;24915;50.858;4.376;2022-08-18T14:02:49;34.40;63.60
39189;DHT22;24915;50.858;4.376;2022-08-18T14:05:19;33.50;66.50
39189;DHT22;24915;50.858;4.376;2022-08-18T14:07:45;33.30;68.10
39189;DHT22;24915;50.858;4.376;2022-08-18T14:10:11;33.60;68.40
39189;DHT22;24915;50.858;4.376;2022-08-18T14:12:38;33.80;67.60
39189;DHT22;24915;50.858;4.376;2022-08-18T14:15:08;33.60;67.90
39189;DHT22;24915;50.858;4.376;2022-08-18T14:17:34;33.50;68.10
39189;DHT22;24915;50.858;4.376;2022-08-18T14:20:01;33.50;68.40
39189;DHT22;24915;50.858;4.376;2022-08-18T14:22:45;33.90;69.50
39189;DHT22;24915;50.858;4.376;2022-08-18T14:25:30;34.20;67.40
39189;DHT22;24915;50.858;4.376;2022-08-18T14:28:14;34.20;66.80
39189;DHT22;24915;50.858;4.376;2022-08-18T14:30:45;34.40;67.00
39189;DHT22;24915;50.858;4.376;2022-08-18T14:33:11;34.60;68.00
39189;DHT22;24915;50.858;4.376;2022-08-18T14:35:40;34.90;67.40
39189;DHT22;24915;50.858;4.376;2022-08-18T14:38:06;35.20;65.90
39189;DHT22;24915;50.858;4.376;2022-08-18T14:40:33;35.40;65.30
39189;DHT22;24915;50.858;4.376;2022-08-18T14:42:59;35.60;64.20
39189;DHT22;24915;50.858;4.376;2022-08-18T14:45:27;35.70;63.20
39189;DHT22;24915;50.858;4.376;2022-08-18T14:47:54;35.70;63.20
39189;DHT22;24915;50.858;4.376;2022-08-18T14:50:20;35.50;63.30
39189;DHT22;24915;50.858;4.376;2022-08-18T14:52:46;35.10;63.90
39189;DHT22;24915;50.858;4.376;2022-08-18T14:55:13;35.00;64.60
39189;DHT22;24915;50.858;4.376;2022-08-18T14:57:39;34.90;64.50
39189;DHT22;24915;50.858;4.376;2022-08-18T15:00:11;34.70;65.20
39189;DHT22;24915;50.858;4.376;2022-08-18T15:02:39;34.70;65.60
39189;DHT22;24915;50.858;4.376;2022-08-18T15:05:06;34.80;65.20
39189;DHT22;24915;50.858;4.376;2022-08-18T15:07:34;34.80;64.80
39189;DHT22;24915;50.858;4.376;2022-08-18T15:10:03;34.70;63.70
39189;DHT22;24915;50.858;4.376;2022-08-18T15:12:29;34.70;64.50
39189;DHT22;24915;50.858;4.376;2022-08-18T15:14:54;34.60;64.80
39189;DHT22;24915;50.858;4.376;2022-08-18T15:17:20;34.50;64.60
39189;DHT22;24915;50.858;4.376;2022-08-18T15:19:46;34.30;64.40
39189;DHT22;24915;50.858;4.376;2022-08-18T15:22:13;33.90;64.60
39189;DHT22;24915;50.858;4.376;2022-08-18T15:24:57;33.50;65.40
39189;DHT22;24915;50.858;4.376;2022-08-18T15:27:41;32.90;66.80
39189;DHT22;24915;50.858;4.376;2022-08-18T15:30:12;32.60;67.40
39189;DHT22;24915;50.858;4.376;2022-08-18T15:32:40;32.20;68.10
39189;DHT22;24915;50.858;4.376;2022-08-18T15:35:08;31.90;68.70
39189;DHT22;24915;50.858;4.376;2022-08-18T15:37:35;31.90;69.20
39189;DHT22;24915;50.858;4.376;2022-08-18T15:42:37;31.90;70.10
39189;DHT22;24915;50.858;4.376;2022-08-18T15:45:03;31.90;69.70
39189;DHT22;24915;50.858;4.376;2022-08-18T15:47:30;31.90;69.40
39189;DHT22;24915;50.858;4.376;2022-08-18T15:49:59;31.70;68.60
39189;DHT22;24915;50.858;4.376;2022-08-18T15:52:25;31.50;69.90
39189;DHT22;24915;50.858;4.376;2022-08-18T15:54:50;31.40;70.00
39189;DHT22;24915;50.858;4.376;2022-08-18T15:57:16;31.20;70.40
39189;DHT22;24915;50.858;4.376;2022-08-18T15:59:41;31.00;71.00
39189;DHT22;24915;50.858;4.376;2022-08-18T16:02:09;30.80;71.60
39189;DHT22;24915;50.858;4.376;2022-08-18T16:04:35;30.70;71.90
39189;DHT22;24915;50.858;4.376;2022-08-18T16:07:03;30.70;72.30
39189;DHT22;24915;50.858;4.376;2022-08-18T16:09:28;30.60;72.20
39189;DHT22;24915;50.858;4.376;2022-08-18T16:11:54;30.60;72.60
39189;DHT22;24915;50.858;4.376;2022-08-18T16:14:20;30.60;72.60
39189;DHT22;24915;50.858;4.376;2022-08-18T16:16:45;30.60;72.70
39189;DHT22;24915;50.858;4.376;2022-08-18T16:19:11;30.60;72.30
39189;DHT22;24915;50.858;4.376;2022-08-18T16:21:37;30.50;72.70
39189;DHT22;24915;50.858;4.376;2022-08-18T16:24:04;30.40;72.70
39189;DHT22;24915;50.858;4.376;2022-08-18T16:26:31;30.30;73.50
39189;DHT22;24915;50.858;4.376;2022-08-18T16:28:56;30.10;73.40
39189;DHT22;24915;50.858;4.376;2022-08-18T16:31:22;30.00;73.90
39189;DHT22;24915;50.858;4.376;2022-08-18T16:33:50;29.90;74.70
39189;DHT22;24915;50.858;4.376;2022-08-18T16:36:17;29.90;74.90
39189;DHT22;24915;50.858;4.376;2022-08-18T16:38:43;29.70;75.80
39189;DHT22;24915;50.858;4.376;2022-08-18T16:41:11;29.60;75.70
39189;DHT22;24915;50.858;4.376;2022-08-18T16:43:39;29.50;76.00
39189;DHT22;24915;50.858;4.376;2022-08-18T16:46:10;29.40;75.90
39189;DHT22;24915;50.858;4.376;2022-08-18T16:48:36;29.40;76.10
39189;DHT22;24915;50.858;4.376;2022-08-18T16:51:02;29.20;76.10
39189;DHT22;24915;50.858;4.376;2022-08-18T16:53:28;29.10;76.60
39189;DHT22;24915;50.858;4.376;2022-08-18T16:55:54;29.10;76.70
39189;DHT22;24915;50.858;4.376;2022-08-18T16:58:19;29.00;77.00
39189;DHT22;24915;50.858;4.376;2022-08-18T17:01:04;28.90;77.50
39189;DHT22;24915;50.858;4.376;2022-08-18T17:03:48;28.80;77.50
39189;DHT22;24915;50.858;4.376;2022-08-18T17:06:34;28.70;76.90
39189;DHT22;24915;50.858;4.376;2022-08-18T17:09:01;28.60;77.10
39189;DHT22;24915;50.858;4.376;2022-08-18T17:11:27;28.60;77.10
39189;DHT22;24915;50.858;4.376;2022-08-18T17:13:54;28.50;76.70
39189;DHT22;24915;50.858;4.376;2022-08-18T17:16:22;28.50;76.60
39189;DHT22;24915;50.858;4.376;2022-08-18T17:18:49;28.40;77.20
39189;DHT22;24915;50.858;4.376;2022-08-18T17:21:18;28.40;77.20
39189;DHT22;24915;50.858;4.376;2022-08-18T17:23:44;28.40;77.50
39189;DHT22;24915;50.858;4.376;2022-08-18T17:29:09;28.20;78.30
39189;DHT22;24915;50.858;4.376;2022-08-18T17:31:42;28.10;78.90
39189;DHT22;24915;50.858;4.376;2022-08-18T17:34:12;28.00;79.50
39189;DHT22;24915;50.858;4.376;2022-08-18T17:36:47;28.00;79.30
39189;DHT22;24915;50.858;4.376;2022-08-18T17:39:15;27.90;79.40
39189;DHT22;24915;50.858;4.376;2022-08-18T17:41:43;27.80;79.10
39189;DHT22;24915;50.858;4.376;2022-08-18T17:44:29;27.70;79.70
39189;DHT22;24915;50.858;4.376;2022-08-18T17:46:55;27.70;80.30
39189;DHT22;24915;50.858;4.376;2022-08-18T17:49:39;27.60;80.90
39189;DHT22;24915;50.858;4.376;2022-08-18T17:52:27;27.50;81.60
39189;DHT22;24915;50.858;4.376;2022-08-18T17:55:00;27.50;82.10
39189;DHT22;24915;50.858;4.376;2022-08-18T17:57:32;27.40;82.50
39189;DHT22;24915;50.858;4.376;2022-08-18T18:00:09;27.40;82.80
39189;DHT22;24915;50.858;4.376;2022-08-18T18:02:37;27.30;82.90
39189;DHT22;24915;50.858;4.376;2022-08-18T18:05:07;27.20;83.40
39189;DHT22;24915;50.858;4.376;2022-08-18T18:16:00;26.90;85.00
39189;DHT22;24915;50.858;4.376;2022-08-18T18:18:40;26.80;85.30
39189;DHT22;24915;50.858;4.376;2022-08-18T18:21:19;26.80;85.60
39189;DHT22;24915;50.858;4.376;2022-08-18T18:24:09;26.70;85.80
39189;DHT22;24915;50.858;4.376;2022-08-18T18:26:44;26.70;85.80
39189;DHT22;24915;50.858;4.376;2022-08-18T18:29:23;26.60;85.60
39189;DHT22;24915;50.858;4.376;2022-08-18T18:32:01;26.50;85.80
39189;DHT22;24915;50.858;4.376;2022-08-18T18:34:37;26.50;86.60
39189;DHT22;24915;50.858;4.376;2022-08-18T18:37:27;26.50;86.80
39189;DHT22;24915;50.858;4.376;2022-08-18T18:40:04;26.40;87.50
39189;DHT22;24915;50.858;4.376;2022-08-18T18:42:34;26.30;87.70
39189;DHT22;24915;50.858;4.376;2022-08-18T18:45:03;26.30;88.20
39189;DHT22;24915;50.858;4.376;2022-08-18T18:50:03;26.20;89.00
39189;DHT22;24915;50.858;4.376;2022-08-18T18:55:23;26.00;89.50
39189;DHT22;24915;50.858;4.376;2022-08-18T18:58:08;26.00;89.70
39189;DHT22;24915;50.858;4.376;2022-08-18T19:06:11;25.80;90.30
39189;DHT22;24915;50.858;4.376;2022-08-18T19:12:19;25.70;90.60
39189;DHT22;24915;50.858;4.376;2022-08-18T19:14:53;25.60;90.80